sensor_id;sensor_type;location;lat;lon;timestamp;pressure;altitude;pressure_sealevel;temperature;humidity
10176;BME280;18221;38.704;0.152;2023-10-09T00:00:08;99735.94;;;26.93;45.94
10176;BME280;18221;38.704;0.152;2023-10-09T00:13:19;99740.53;;;26.92;46.49
10176;BME280;18221;38.704;0.152;2023-10-09T00:15:53;99741.00;;;26.89;46.29
10176;BME280;18221;38.704;0.152;2023-10-09T00:18:26;99736.00;;;26.86;46.59
10176;BME280;18221;38.704;0.152;2023-10-09T00:20:56;99729.69;;;26.86;46.37
10176;BME280;18221;38.704;0.152;2023-10-09T00:23:37;99734.31;;;26.85;46.48
10176;BME280;18221;38.704;0.152;2023-10-09T00:26:05;99730.53;;;26.86;46.50
10176;BME280;18221;38.704;0.152;2023-10-09T00:28:38;99727.06;;;26.79;46.57
10176;BME280;18221;38.704;0.152;2023-10-09T00:31:11;99721.81;;;26.78;46.77
10176;BME280;18221;38.704;0.152;2023-10-09T00:33:42;99723.75;;;26.77;46.73
10176;BME280;18221;38.704;0.152;2023-10-09T00:36:10;99723.75;;;26.77;46.72
10176;BME280;18221;38.704;0.152;2023-10-09T00:38:41;99727.38;;;26.65;47.01
10176;BME280;18221;38.704;0.152;2023-10-09T00:41:12;99720.06;;;26.65;47.09
10176;BME280;18221;38.704;0.152;2023-10-09T00:43:48;99723.69;;;26.59;47.17
10176;BME280;18221;38.704;0.152;2023-10-09T00:46:18;99721.13;;;26.64;47.34
10176;BME280;18221;38.704;0.152;2023-10-09T00:48:55;99719.00;;;26.66;47.37
10176;BME280;18221;38.704;0.152;2023-10-09T00:51:24;99714.41;;;26.67;47.28
10176;BME280;18221;38.704;0.152;2023-10-09T00:53:57;99713.41;;;26.61;47.19
10176;BME280;18221;38.704;0.152;2023-10-09T00:56:34;99719.91;;;26.60;47.40
10176;BME280;18221;38.704;0.152;2023-10-09T00:59:15;99715.81;;;26.51;47.58
10176;BME280;18221;38.704;0.152;2023-10-09T01:01:47;99714.97;;;26.51;47.67
10176;BME280;18221;38.704;0.152;2023-10-09T01:04:22;99720.63;;;26.49;47.70
10176;BME280;18221;38.704;0.152;2023-10-09T01:06:52;99714.97;;;26.51;47.89
10176;BME280;18221;38.704;0.152;2023-10-09T01:09:35;99717.25;;;26.54;47.64
10176;BME280;18221;38.704;0.152;2023-10-09T01:12:05;99714.16;;;26.50;47.62
10176;BME280;18221;38.704;0.152;2023-10-09T01:14:35;99720.00;;;26.54;47.46
10176;BME280;18221;38.704;0.152;2023-10-09T01:17:04;99706.81;;;26.51;47.63
10176;BME280;18221;38.704;0.152;2023-10-09T01:19:37;99707.66;;;26.51;47.75
10176;BME280;18221;38.704;0.152;2023-10-09T01:22:05;99711.19;;;26.52;47.71
10176;BME280;18221;38.704;0.152;2023-10-09T01:24:40;99699.41;;;26.58;47.60
10176;BME280;18221;38.704;0.152;2023-10-09T01:27:09;99709.16;;;26.47;47.62
10176;BME280;18221;38.704;0.152;2023-10-09T01:29:41;99701.88;;;26.41;47.81
10176;BME280;18221;38.704;0.152;2023-10-09T01:32:10;99696.41;;;26.41;47.93
10176;BME280;18221;38.704;0.152;2023-10-09T01:34:43;99695.38;;;26.42;47.70
10176;BME280;18221;38.704;0.152;2023-10-09T01:37:15;99687.94;;;26.31;47.89
10176;BME280;18221;38.704;0.152;2023-10-09T01:39:47;99697.34;;;26.35;47.88
10176;BME280;18221;38.704;0.152;2023-10-09T01:42:15;99696.25;;;26.36;47.93
10176;BME280;18221;38.704;0.152;2023-10-09T01:44:54;99692.09;;;26.33;47.92
10176;BME280;18221;38.704;0.152;2023-10-09T01:47:24;99695.06;;;26.32;47.97
10176;BME280;18221;38.704;0.152;2023-10-09T01:49:57;99687.41;;;26.22;48.12
10176;BME280;18221;38.704;0.152;2023-10-09T01:52:31;99684.75;;;26.16;48.18
10176;BME280;18221;38.704;0.152;2023-10-09T01:55:04;99680.28;;;26.21;48.30
10176;BME280;18221;38.704;0.152;2023-10-09T01:57:33;99680.38;;;26.15;48.45
10176;BME280;18221;38.704;0.152;2023-10-09T02:00:07;99675.13;;;26.13;48.50
10176;BME280;18221;38.704;0.152;2023-10-09T02:02:36;99679.09;;;26.17;48.33
10176;BME280;18221;38.704;0.152;2023-10-09T02:05:06;99671.63;;;26.06;48.56
10176;BME280;18221;38.704;0.152;2023-10-09T02:07:37;99675.97;;;26.14;48.60
10176;BME280;18221;38.704;0.152;2023-10-09T02:10:14;99678.94;;;26.06;48.59
10176;BME280;18221;38.704;0.152;2023-10-09T02:12:59;99675.63;;;26.04;48.98
10176;BME280;18221;38.704;0.152;2023-10-09T02:15:34;99664.72;;;26.04;49.08
10176;BME280;18221;38.704;0.152;2023-10-09T02:18:14;99663.41;;;26.13;48.81
10176;BME280;18221;38.704;0.152;2023-10-09T02:21:03;99661.59;;;26.00;49.03
10176;BME280;18221;38.704;0.152;2023-10-09T02:23:39;99669.22;;;25.92;49.40
10176;BME280;18221;38.704;0.152;2023-10-09T02:26:15;99659.44;;;25.84;49.43
10176;BME280;18221;38.704;0.152;2023-10-09T02:28:46;99659.19;;;25.67;49.77
10176;BME280;18221;38.704;0.152;2023-10-09T02:31:21;99662.41;;;25.83;49.65
10176;BME280;18221;38.704;0.152;2023-10-09T02:33:53;99665.19;;;26.01;49.49
10176;BME280;18221;38.704;0.152;2023-10-09T02:36:22;99661.28;;;25.90;49.47
10176;BME280;18221;38.704;0.152;2023-10-09T02:38:51;99669.00;;;25.93;49.41
10176;BME280;18221;38.704;0.152;2023-10-09T02:41:21;99671.06;;;25.98;49.29
10176;BME280;18221;38.704;0.152;2023-10-09T02:43:49;99666.50;;;25.92;49.28
10176;BME280;18221;38.704;0.152;2023-10-09T02:46:22;99667.56;;;25.91;49.49
10176;BME280;18221;38.704;0.152;2023-10-09T02:48:57;99674.84;;;25.97;49.19
10176;BME280;18221;38.704;0.152;2023-10-09T02:51:26;99668.91;;;26.06;48.86
10176;BME280;18221;38.704;0.152;2023-10-09T02:54:03;99669.56;;;26.02;49.01
10176;BME280;18221;38.704;0.152;2023-10-09T02:56:55;99677.19;;;25.93;49.35
10176;BME280;18221;38.704;0.152;2023-10-09T02:59:32;99663.59;;;25.87;49.38
10176;BME280;18221;38.704;0.152;2023-10-09T03:02:00;99666.97;;;25.89;49.27
10176;BME280;18221;38.704;0.152;2023-10-09T03:04:28;99669.13;;;25.80;49.51
10176;BME280;18221;38.704;0.152;2023-10-09T03:06:57;99663.56;;;25.68;49.68
10176;BME280;18221;38.704;0.152;2023-10-09T03:09:26;99666.34;;;25.62;50.13
10176;BME280;18221;38.704;0.152;2023-10-09T03:11:58;99669.56;;;25.52;50.19
10176;BME280;18221;38.704;0.152;2023-10-09T03:14:31;99661.50;;;25.64;49.89
10176;BME280;18221;38.704;0.152;2023-10-09T03:17:02;99665.22;;;25.69;49.89
10176;BME280;18221;38.704;0.152;2023-10-09T03:19:31;99672.16;;;25.65;49.97
10176;BME280;18221;38.704;0.152;2023-10-09T03:22:04;99667.97;;;25.63;50.29
10176;BME280;18221;38.704;0.152;2023-10-09T03:24:36;99667.00;;;25.57;50.58
10176;BME280;18221;38.704;0.152;2023-10-09T03:27:06;99671.09;;;25.66;50.47
10176;BME280;18221;38.704;0.152;2023-10-09T03:29:34;99669.22;;;25.67;50.26
10176;BME280;18221;38.704;0.152;2023-10-09T03:32:03;99660.41;;;25.71;49.81
10176;BME280;18221;38.704;0.152;2023-10-09T03:34:32;99662.91;;;25.73;49.74
10176;BME280;18221;38.704;0.152;2023-10-09T03:37:00;99664.00;;;25.65;49.88
10176;BME280;18221;38.704;0.152;2023-10-09T03:39:37;99671.00;;;25.55;50.39
10176;BME280;18221;38.704;0.152;2023-10-09T03:42:10;99679.38;;;25.53;50.26
10176;BME280;18221;38.704;0.152;2023-10-09T03:44:45;99684.84;;;25.47;50.38
10176;BME280;18221;38.704;0.152;2023-10-09T03:47:18;99681.03;;;25.54;50.56
10176;BME280;18221;38.704;0.152;2023-10-09T03:49:49;99672.66;;;25.56;50.11
10176;BME280;18221;38.704;0.152;2023-10-09T03:52:18;99680.63;;;25.51;50.20
10176;BME280;18221;38.704;0.152;2023-10-09T03:54:46;99681.06;;;25.48;50.16
10176;BME280;18221;38.704;0.152;2023-10-09T03:57:17;99675.59;;;25.54;49.72
10176;BME280;18221;38.704;0.152;2023-10-09T03:59:46;99680.09;;;25.67;49.70
10176;BME280;18221;38.704;0.152;2023-10-09T04:02:15;99683.34;;;25.51;49.94
10176;BME280;18221;38.704;0.152;2023-10-09T04:04:43;99678.59;;;25.46;49.98
10176;BME280;18221;38.704;0.152;2023-10-09T04:07:13;99675.22;;;25.44;50.19
10176;BME280;18221;38.704;0.152;2023-10-09T04:09:42;99684.34;;;25.18;50.82
10176;BME280;18221;38.704;0.152;2023-10-09T04:12:19;99679.47;;;25.34;50.58
10176;BME280;18221;38.704;0.152;2023-10-09T04:14:52;99685.28;;;25.37;50.39
10176;BME280;18221;38.704;0.152;2023-10-09T04:17:24;99685.69;;;25.41;50.23
10176;BME280;18221;38.704;0.152;2023-10-09T04:20:02;99685.53;;;25.36;50.15
10176;BME280;18221;38.704;0.152;2023-10-09T04:22:53;99687.34;;;25.48;50.14
10176;BME280;18221;38.704;0.152;2023-10-09T04:25:32;99684.78;;;25.60;49.84
10176;BME280;18221;38.704;0.152;2023-10-09T04:28:11;99681.16;;;25.66;49.48
10176;BME280;18221;38.704;0.152;2023-10-09T04:30:46;99696.91;;;25.57;50.00
10176;BME280;18221;38.704;0.152;2023-10-09T04:33:20;99687.66;;;25.65;49.67
10176;BME280;18221;38.704;0.152;2023-10-09T04:36:06;99686.50;;;25.48;50.09
10176;BME280;18221;38.704;0.152;2023-10-09T04:38:48;99689.25;;;25.41;50.01
10176;BME280;18221;38.704;0.152;2023-10-09T04:41:45;99694.91;;;25.46;50.30
10176;BME280;18221;38.704;0.152;2023-10-09T04:44:27;99687.13;;;25.43;50.55
10176;BME280;18221;38.704;0.152;2023-10-09T04:47:02;99686.09;;;25.44;50.87
10176;BME280;18221;38.704;0.152;2023-10-09T04:49:43;99687.31;;;25.55;50.06
10176;BME280;18221;38.704;0.152;2023-10-09T04:52:20;99694.09;;;25.33;50.74
10176;BME280;18221;38.704;0.152;2023-10-09T04:55:10;99696.81;;;25.39;50.61
10176;BME280;18221;38.704;0.152;2023-10-09T04:57:46;99695.72;;;25.40;50.45
10176;BME280;18221;38.704;0.152;2023-10-09T05:00:30;99696.53;;;25.47;50.51
10176;BME280;18221;38.704;0.152;2023-10-09T05:03:17;99701.91;;;25.60;50.04
10176;BME280;18221;38.704;0.152;2023-10-09T05:05:54;99704.00;;;25.58;50.09
10176;BME280;18221;38.704;0.152;2023-10-09T05:08:47;99702.53;;;25.62;50.04
10176;BME280;18221;38.704;0.152;2023-10-09T05:11:15;99703.00;;;25.53;50.13
10176;BME280;18221;38.704;0.152;2023-10-09T05:14:01;99709.69;;;25.57;50.02
10176;BME280;18221;38.704;0.152;2023-10-09T05:16:44;99703.00;;;25.53;49.97
10176;BME280;18221;38.704;0.152;2023-10-09T05:19:22;99709.94;;;25.42;50.73
10176;BME280;18221;38.704;0.152;2023-10-09T05:22:09;99710.53;;;25.51;50.34
10176;BME280;18221;38.704;0.152;2023-10-09T05:24:43;99715.78;;;25.52;50.22
10176;BME280;18221;38.704;0.152;2023-10-09T05:27:13;99714.31;;;25.50;50.22
10176;BME280;18221;38.704;0.152;2023-10-09T05:30:08;99717.84;;;25.57;49.73
10176;BME280;18221;38.704;0.152;2023-10-09T05:32:57;99716.16;;;25.56;49.66
10176;BME280;18221;38.704;0.152;2023-10-09T05:35:42;99721.56;;;25.62;49.83
10176;BME280;18221;38.704;0.152;2023-10-09T05:38:30;99722.69;;;25.48;50.24
10176;BME280;18221;38.704;0.152;2023-10-09T05:40:57;99718.72;;;25.44;50.21
10176;BME280;18221;38.704;0.152;2023-10-09T05:43:46;99728.59;;;25.39;50.63
10176;BME280;18221;38.704;0.152;2023-10-09T05:46:31;99729.16;;;25.54;50.53
10176;BME280;18221;38.704;0.152;2023-10-09T05:49:04;99722.25;;;25.51;50.57
10176;BME280;18221;38.704;0.152;2023-10-09T05:51:46;99725.59;;;25.53;50.53
10176;BME280;18221;38.704;0.152;2023-10-09T05:54:19;99726.44;;;25.47;50.74
10176;BME280;18221;38.704;0.152;2023-10-09T05:57:07;99727.69;;;25.51;50.57
10176;BME280;18221;38.704;0.152;2023-10-09T05:59:52;99720.75;;;25.55;50.37
10176;BME280;18221;38.704;0.152;2023-10-09T06:02:38;99723.16;;;25.32;50.99
10176;BME280;18221;38.704;0.152;2023-10-09T06:05:27;99724.81;;;25.46;50.85
10176;BME280;18221;38.704;0.152;2023-10-09T06:08:30;99720.00;;;25.42;50.90
10176;BME280;18221;38.704;0.152;2023-10-09T06:11:14;99722.31;;;25.38;51.31
10176;BME280;18221;38.704;0.152;2023-10-09T06:13:57;99727.28;;;25.48;50.95
10176;BME280;18221;38.704;0.152;2023-10-09T06:16:31;99742.13;;;25.52;50.74
10176;BME280;18221;38.704;0.152;2023-10-09T06:19:07;99729.56;;;25.57;50.88
10176;BME280;18221;38.704;0.152;2023-10-09T06:21:40;99738.09;;;25.61;50.94
10176;BME280;18221;38.704;0.152;2023-10-09T06:24:34;99737.44;;;25.65;50.62
10176;BME280;18221;38.704;0.152;2023-10-09T06:27:08;99736.81;;;25.63;50.61
10176;BME280;18221;38.704;0.152;2023-10-09T06:29:50;99733.66;;;25.66;50.70
10176;BME280;18221;38.704;0.152;2023-10-09T06:32:44;99741.25;;;25.58;50.74
10176;BME280;18221;38.704;0.152;2023-10-09T06:35:17;99739.53;;;25.63;50.45
10176;BME280;18221;38.704;0.152;2023-10-09T06:37:50;99741.63;;;25.68;50.64
10176;BME280;18221;38.704;0.152;2023-10-09T06:40:37;99748.31;;;25.65;50.43
10176;BME280;18221;38.704;0.152;2023-10-09T06:43:24;99745.81;;;25.64;50.35
10176;BME280;18221;38.704;0.152;2023-10-09T06:45:56;99753.00;;;25.45;50.96
10176;BME280;18221;38.704;0.152;2023-10-09T06:48:51;99753.88;;;25.46;50.72
10176;BME280;18221;38.704;0.152;2023-10-09T06:51:24;99751.75;;;25.54;50.52
10176;BME280;18221;38.704;0.152;2023-10-09T06:54:11;99754.66;;;25.53;50.76
10176;BME280;18221;38.704;0.152;2023-10-09T06:56:41;99759.31;;;25.52;50.64
10176;BME280;18221;38.704;0.152;2023-10-09T06:59:27;99764.97;;;25.44;50.77
10176;BME280;18221;38.704;0.152;2023-10-09T07:02:08;99756.94;;;25.62;50.23
10176;BME280;18221;38.704;0.152;2023-10-09T07:04:55;99759.72;;;25.49;50.68
10176;BME280;18221;38.704;0.152;2023-10-09T07:07:37;99764.06;;;25.57;50.60
10176;BME280;18221;38.704;0.152;2023-10-09T07:10:18;99757.94;;;25.68;50.40
10176;BME280;18221;38.704;0.152;2023-10-09T07:13:00;99763.16;;;25.69;50.25
10176;BME280;18221;38.704;0.152;2023-10-09T07:15:28;99768.00;;;25.67;50.53
10176;BME280;18221;38.704;0.152;2023-10-09T07:18:13;99773.16;;;25.75;50.27
10176;BME280;18221;38.704;0.152;2023-10-09T07:20:50;99774.47;;;25.66;50.31
10176;BME280;18221;38.704;0.152;2023-10-09T07:23:28;99773.72;;;25.84;49.92
10176;BME280;18221;38.704;0.152;2023-10-09T07:26:05;99774.97;;;25.88;49.54
10176;BME280;18221;38.704;0.152;2023-10-09T07:28:46;99776.59;;;25.64;50.27
10176;BME280;18221;38.704;0.152;2023-10-09T07:31:20;99785.06;;;25.81;49.87
10176;BME280;18221;38.704;0.152;2023-10-09T07:34:06;99783.34;;;25.87;49.97
10176;BME280;18221;38.704;0.152;2023-10-09T07:36:55;99790.22;;;25.89;49.82
10176;BME280;18221;38.704;0.152;2023-10-09T07:39:23;99798.56;;;25.94;49.67
10176;BME280;18221;38.704;0.152;2023-10-09T07:42:05;99796.84;;;26.00;49.38
10176;BME280;18221;38.704;0.152;2023-10-09T07:44:53;99797.84;;;26.05;49.39
10176;BME280;18221;38.704;0.152;2023-10-09T07:47:24;99804.75;;;26.08;49.37
10176;BME280;18221;38.704;0.152;2023-10-09T07:50:12;99801.59;;;26.17;49.10
10176;BME280;18221;38.704;0.152;2023-10-09T07:52:47;99808.06;;;26.16;48.94
10176;BME280;18221;38.704;0.152;2023-10-09T07:55:16;99805.13;;;26.18;49.10
10176;BME280;18221;38.704;0.152;2023-10-09T07:58:07;99808.72;;;26.12;49.10
10176;BME280;18221;38.704;0.152;2023-10-09T08:00:38;99802.03;;;26.08;49.24
10176;BME280;18221;38.704;0.152;2023-10-09T08:03:32;99807.88;;;26.11;49.42
10176;BME280;18221;38.704;0.152;2023-10-09T08:06:01;99803.28;;;26.12;49.14
10176;BME280;18221;38.704;0.152;2023-10-09T08:08:55;99806.09;;;26.30;48.80
10176;BME280;18221;38.704;0.152;2023-10-09T08:11:54;99813.34;;;26.36;48.75
10176;BME280;18221;38.704;0.152;2023-10-09T08:15:03;99821.25;;;26.44;48.42
10176;BME280;18221;38.704;0.152;2023-10-09T08:17:54;99823.31;;;26.49;48.21
10176;BME280;18221;38.704;0.152;2023-10-09T08:20:26;99816.13;;;26.54;48.22
10176;BME280;18221;38.704;0.152;2023-10-09T08:23:03;99816.03;;;26.43;48.48
10176;BME280;18221;38.704;0.152;2023-10-09T08:25:31;99816.81;;;26.50;48.23
10176;BME280;18221;38.704;0.152;2023-10-09T08:28:00;99819.66;;;26.61;47.62
10176;BME280;18221;38.704;0.152;2023-10-09T08:30:52;99819.97;;;26.71;47.57
10176;BME280;18221;38.704;0.152;2023-10-09T08:33:30;99813.75;;;26.89;47.08
10176;BME280;18221;38.704;0.152;2023-10-09T08:36:10;99816.38;;;26.77;47.26
10176;BME280;18221;38.704;0.152;2023-10-09T08:38:41;99812.75;;;26.83;47.30
10176;BME280;18221;38.704;0.152;2023-10-09T08:41:12;99811.00;;;26.89;47.26
10176;BME280;18221;38.704;0.152;2023-10-09T08:43:53;99812.75;;;27.02;46.96
10176;BME280;18221;38.704;0.152;2023-10-09T08:46:25;99800.94;;;26.89;46.65
10176;BME280;18221;38.704;0.152;2023-10-09T08:48:55;99810.56;;;26.92;46.48
10176;BME280;18221;38.704;0.152;2023-10-09T08:51:25;99811.03;;;27.07;46.45
10176;BME280;18221;38.704;0.152;2023-10-09T08:53:54;99807.75;;;27.17;46.05
10176;BME280;18221;38.704;0.152;2023-10-09T08:56:22;99802.00;;;27.25;45.91
10176;BME280;18221;38.704;0.152;2023-10-09T08:58:52;99796.69;;;27.12;45.10
10176;BME280;18221;38.704;0.152;2023-10-09T09:01:22;99802.00;;;27.07;45.52
10176;BME280;18221;38.704;0.152;2023-10-09T09:03:54;99804.53;;;27.44;44.64
10176;BME280;18221;38.704;0.152;2023-10-09T09:06:23;99796.81;;;27.41;44.97
10176;BME280;18221;38.704;0.152;2023-10-09T09:08:52;99809.56;;;27.59;44.86
10176;BME280;18221;38.704;0.152;2023-10-09T09:11:26;99800.88;;;27.80;44.30
10176;BME280;18221;38.704;0.152;2023-10-09T09:14:04;99805.66;;;27.55;43.27
10176;BME280;18221;38.704;0.152;2023-10-09T09:16:40;99809.25;;;27.67;42.72
10176;BME280;18221;38.704;0.152;2023-10-09T09:19:14;99810.97;;;27.50;43.85
10176;BME280;18221;38.704;0.152;2023-10-09T09:21:51;99812.53;;;27.58;43.89
10176;BME280;18221;38.704;0.152;2023-10-09T09:24:26;99813.06;;;27.66;43.87
10176;BME280;18221;38.704;0.152;2023-10-09T09:27:01;99811.59;;;27.93;42.99
10176;BME280;18221;38.704;0.152;2023-10-09T09:29:41;99810.09;;;27.68;43.33
10176;BME280;18221;38.704;0.152;2023-10-09T09:32:28;99810.81;;;27.75;43.09
10176;BME280;18221;38.704;0.152;2023-10-09T09:35:02;99815.31;;;27.33;42.25
10176;BME280;18221;38.704;0.152;2023-10-09T09:37:32;99816.47;;;27.62;41.52
10176;BME280;18221;38.704;0.152;2023-10-09T09:40:17;99809.13;;;27.62;41.28
10176;BME280;18221;38.704;0.152;2023-10-09T09:42:58;99809.25;;;27.97;40.86
10176;BME280;18221;38.704;0.152;2023-10-09T09:45:33;99811.94;;;27.85;40.20
10176;BME280;18221;38.704;0.152;2023-10-09T09:48:04;99817.66;;;28.25;39.54
10176;BME280;18221;38.704;0.152;2023-10-09T09:50:36;99819.47;;;28.43;39.65
10176;BME280;18221;38.704;0.152;2023-10-09T09:53:10;99813.53;;;28.46;39.26
10176;BME280;18221;38.704;0.152;2023-10-09T09:55:46;99812.75;;;28.68;39.02
10176;BME280;18221;38.704;0.152;2023-10-09T09:58:22;99812.41;;;28.65;39.31
10176;BME280;18221;38.704;0.152;2023-10-09T10:00:58;99804.81;;;28.67;39.01
10176;BME280;18221;38.704;0.152;2023-10-09T10:03:34;99809.56;;;28.83;38.82
10176;BME280;18221;38.704;0.152;2023-10-09T10:06:07;99802.84;;;29.02;38.82
10176;BME280;18221;38.704;0.152;2023-10-09T10:08:36;99806.44;;;29.14;37.59
10176;BME280;18221;38.704;0.152;2023-10-09T10:11:05;99808.81;;;29.22;37.68
10176;BME280;18221;38.704;0.152;2023-10-09T10:13:56;99791.84;;;29.49;37.54
10176;BME280;18221;38.704;0.152;2023-10-09T10:16:27;99796.13;;;29.45;37.49
10176;BME280;18221;38.704;0.152;2023-10-09T10:19:04;99795.38;;;29.61;37.95
10176;BME280;18221;38.704;0.152;2023-10-09T10:21:48;99802.28;;;29.91;37.26
10176;BME280;18221;38.704;0.152;2023-10-09T10:24:43;99798.00;;;30.12;36.65
10176;BME280;18221;38.704;0.152;2023-10-09T10:27:25;99791.19;;;29.98;36.75
10176;BME280;18221;38.704;0.152;2023-10-09T10:30:28;99794.50;;;30.00;36.22
10176;BME280;18221;38.704;0.152;2023-10-09T10:33:03;99794.59;;;30.05;36.61
10176;BME280;18221;38.704;0.152;2023-10-09T10:35:40;99787.38;;;30.32;35.90
10176;BME280;18221;38.704;0.152;2023-10-09T10:38:29;99795.59;;;30.32;35.41
10176;BME280;18221;38.704;0.152;2023-10-09T10:41:14;99793.66;;;30.44;34.63
10176;BME280;18221;38.704;0.152;2023-10-09T10:43:44;99793.31;;;30.41;35.66
10176;BME280;18221;38.704;0.152;2023-10-09T10:46:24;99792.69;;;30.22;35.60
10176;BME280;18221;38.704;0.152;2023-10-09T10:48:59;99793.00;;;30.37;35.37
10176;BME280;18221;38.704;0.152;2023-10-09T10:51:38;99789.25;;;30.60;35.37
10176;BME280;18221;38.704;0.152;2023-10-09T10:54:07;99793.19;;;30.69;33.97
10176;BME280;18221;38.704;0.152;2023-10-09T10:57:19;99783.72;;;30.77;34.49
10176;BME280;18221;38.704;0.152;2023-10-09T10:59:56;99789.19;;;30.77;34.18
10176;BME280;18221;38.704;0.152;2023-10-09T11:02:44;99783.00;;;30.65;33.01
10176;BME280;18221;38.704;0.152;2023-10-09T11:05:14;99783.56;;;30.67;33.03
10176;BME280;18221;38.704;0.152;2023-10-09T11:07:57;99786.31;;;30.67;33.20
10176;BME280;18221;38.704;0.152;2023-10-09T11:10:27;99781.31;;;30.80;33.51
10176;BME280;18221;38.704;0.152;2023-10-09T11:12:58;99782.78;;;30.88;32.66
10176;BME280;18221;38.704;0.152;2023-10-09T11:15:44;99772.91;;;30.87;32.48
10176;BME280;18221;38.704;0.152;2023-10-09T11:18:15;99780.63;;;30.90;32.53
10176;BME280;18221;38.704;0.152;2023-10-09T11:20:50;99775.81;;;30.80;32.57
10176;BME280;18221;38.704;0.152;2023-10-09T11:23:46;99776.66;;;30.81;32.65
10176;BME280;18221;38.704;0.152;2023-10-09T11:26:26;99764.78;;;30.92;32.16
10176;BME280;18221;38.704;0.152;2023-10-09T11:29:08;99768.16;;;30.82;32.51
10176;BME280;18221;38.704;0.152;2023-10-09T11:31:58;99754.47;;;30.82;33.47
10176;BME280;18221;38.704;0.152;2023-10-09T11:34:28;99754.97;;;30.79;33.26
10176;BME280;18221;38.704;0.152;2023-10-09T11:37:01;99754.28;;;30.89;33.57
10176;BME280;18221;38.704;0.152;2023-10-09T11:39:32;99748.06;;;30.93;34.10
10176;BME280;18221;38.704;0.152;2023-10-09T11:42:08;99745.72;;;30.85;35.42
10176;BME280;18221;38.704;0.152;2023-10-09T11:44:39;99747.84;;;30.78;35.72
10176;BME280;18221;38.704;0.152;2023-10-09T11:47:08;99742.09;;;30.80;36.37
10176;BME280;18221;38.704;0.152;2023-10-09T11:49:51;99738.69;;;30.73;35.71
10176;BME280;18221;38.704;0.152;2023-10-09T11:52:55;99734.19;;;30.83;34.64
10176;BME280;18221;38.704;0.152;2023-10-09T11:55:36;99730.88;;;30.81;34.03
10176;BME280;18221;38.704;0.152;2023-10-09T11:58:04;99731.13;;;30.80;33.57
10176;BME280;18221;38.704;0.152;2023-10-09T12:00:33;99729.22;;;30.80;34.54
10176;BME280;18221;38.704;0.152;2023-10-09T12:03:12;99727.38;;;30.86;34.47
10176;BME280;18221;38.704;0.152;2023-10-09T12:05:41;99722.81;;;30.75;34.27
10176;BME280;18221;38.704;0.152;2023-10-09T12:08:12;99720.47;;;30.83;35.11
10176;BME280;18221;38.704;0.152;2023-10-09T12:10:44;99713.75;;;30.91;34.37
10176;BME280;18221;38.704;0.152;2023-10-09T12:13:14;99715.91;;;30.89;34.01
10176;BME280;18221;38.704;0.152;2023-10-09T12:15:42;99712.69;;;30.92;33.86
10176;BME280;18221;38.704;0.152;2023-10-09T12:18:12;99711.00;;;30.91;34.27
10176;BME280;18221;38.704;0.152;2023-10-09T12:20:43;99720.81;;;30.87;34.82
10176;BME280;18221;38.704;0.152;2023-10-09T12:23:18;99707.19;;;30.92;35.14
10176;BME280;18221;38.704;0.152;2023-10-09T12:25:49;99702.13;;;30.84;34.98
10176;BME280;18221;38.704;0.152;2023-10-09T12:28:18;99703.47;;;30.81;35.70
10176;BME280;18221;38.704;0.152;2023-10-09T12:30:47;99698.53;;;31.00;34.70
10176;BME280;18221;38.704;0.152;2023-10-09T12:33:17;99691.88;;;30.79;35.28
10176;BME280;18221;38.704;0.152;2023-10-09T12:35:46;99691.72;;;30.86;35.05
10176;BME280;18221;38.704;0.152;2023-10-09T12:38:14;99693.47;;;30.92;36.05
10176;BME280;18221;38.704;0.152;2023-10-09T12:40:46;99688.00;;;30.92;35.23
10176;BME280;18221;38.704;0.152;2023-10-09T12:43:19;99687.66;;;31.10;35.22
10176;BME280;18221;38.704;0.152;2023-10-09T12:45:48;99690.97;;;31.12;35.02
10176;BME280;18221;38.704;0.152;2023-10-09T12:48:16;99688.28;;;31.17;34.99
10176;BME280;18221;38.704;0.152;2023-10-09T12:50:44;99686.84;;;31.09;35.32
10176;BME280;18221;38.704;0.152;2023-10-09T12:53:12;99691.03;;;31.17;34.60
10176;BME280;18221;38.704;0.152;2023-10-09T12:55:44;99687.31;;;31.28;34.41
10176;BME280;18221;38.704;0.152;2023-10-09T12:58:14;99685.72;;;31.32;34.03
10176;BME280;18221;38.704;0.152;2023-10-09T13:00:45;99683.59;;;31.39;33.55
10176;BME280;18221;38.704;0.152;2023-10-09T13:03:16;99683.81;;;31.11;33.62
10176;BME280;18221;38.704;0.152;2023-10-09T13:05:46;99676.09;;;31.08;33.48
10176;BME280;18221;38.704;0.152;2023-10-09T13:08:23;99672.78;;;31.06;34.30
10176;BME280;18221;38.704;0.152;2023-10-09T13:11:02;99669.28;;;31.37;34.18
10176;BME280;18221;38.704;0.152;2023-10-09T13:13:39;99661.75;;;31.23;33.63
10176;BME280;18221;38.704;0.152;2023-10-09T13:16:14;99667.31;;;31.06;34.50
10176;BME280;18221;38.704;0.152;2023-10-09T13:18:49;99658.56;;;31.09;34.29
10176;BME280;18221;38.704;0.152;2023-10-09T13:21:21;99651.34;;;31.03;34.40
10176;BME280;18221;38.704;0.152;2023-10-09T13:23:50;99657.38;;;31.00;35.16
10176;BME280;18221;38.704;0.152;2023-10-09T13:26:21;99655.31;;;31.12;35.03
10176;BME280;18221;38.704;0.152;2023-10-09T13:28:57;99649.81;;;31.12;35.09
10176;BME280;18221;38.704;0.152;2023-10-09T13:31:26;99645.75;;;31.14;35.05
10176;BME280;18221;38.704;0.152;2023-10-09T13:33:59;99649.44;;;31.03;34.98
10176;BME280;18221;38.704;0.152;2023-10-09T13:36:28;99644.28;;;31.07;35.19
10176;BME280;18221;38.704;0.152;2023-10-09T13:38:58;99645.34;;;31.06;34.84
10176;BME280;18221;38.704;0.152;2023-10-09T13:41:29;99648.56;;;30.98;35.03
10176;BME280;18221;38.704;0.152;2023-10-09T13:43:58;99641.50;;;31.02;34.66
10176;BME280;18221;38.704;0.152;2023-10-09T13:46:26;99633.78;;;30.99;34.78
10176;BME280;18221;38.704;0.152;2023-10-09T13:48:54;99641.66;;;31.17;34.90
10176;BME280;18221;38.704;0.152;2023-10-09T13:51:22;99642.22;;;31.19;34.67
10176;BME280;18221;38.704;0.152;2023-10-09T13:53:50;99634.91;;;31.03;34.75
10176;BME280;18221;38.704;0.152;2023-10-09T13:56:20;99626.63;;;30.98;35.40